DLH8EN EDDF-EDDW
Flight info
| Callsign | DLH8EN |
|---|---|
| Flight time | 0h 38m |
| Altitude | 22000 |
| Route | MARUN3W/25C MARUN Y153 WRB N850 NIE Z88 VERED VERED3P |
| Aircraft | A320/M-SDE3FGHIRWY/LB1 |
Departure
| Time | 2026-05-04 20:20 |
|---|---|
| Airport | Frankfurt Main Airport (EDDF) |
Arrival
| Time | 2026-05-04 20:58 |
|---|---|
| Airport | Bremen Airport (EDDW) |
| Time | Latitude | Longitude | Altitude | Speed | Heading |
|---|---|---|---|---|---|
| 2026-05-04 19:35 | 50.04403 | 8.56222 | 362 ft | 0 kts | 159° |
| 2026-05-04 19:57 | 50.04411 | 8.56217 | 346 ft | 3 kts | 160° |
| 2026-05-04 19:58 | 50.04432 | 8.56207 | 364 ft | 3 kts | 166° |
| 2026-05-04 19:58 | 50.04453 | 8.56201 | 359 ft | 3 kts | 182° |
| 2026-05-04 19:58 | 50.04471 | 8.56207 | 358 ft | 3 kts | 227° |
| 2026-05-04 19:58 | 50.04475 | 8.56209 | 365 ft | 3 kts | 250° |
| 2026-05-04 19:59 | 50.04467 | 8.56177 | 361 ft | 3 kts | 250° |
| 2026-05-04 19:59 | 50.04460 | 8.56146 | 358 ft | 3 kts | 250° |
| 2026-05-04 19:59 | 50.04453 | 8.56118 | 359 ft | 0 kts | 249° |
| 2026-05-04 20:06 | 50.04452 | 8.56113 | 362 ft | 3 kts | 250° |
| 2026-05-04 20:06 | 50.04441 | 8.56067 | 362 ft | 4 kts | 249° |
| 2026-05-04 20:06 | 50.04424 | 8.56031 | 359 ft | 7 kts | 213° |
| 2026-05-04 20:07 | 50.04371 | 8.56038 | 362 ft | 8 kts | 160° |
| 2026-05-04 20:07 | 50.04322 | 8.56067 | 355 ft | 8 kts | 160° |
| 2026-05-04 20:07 | 50.04291 | 8.56152 | 355 ft | 10 kts | 81° |
| 2026-05-04 20:07 | 50.04261 | 8.56229 | 357 ft | 9 kts | 156° |
| 2026-05-04 20:08 | 50.04205 | 8.56260 | 356 ft | 8 kts | 160° |
| 2026-05-04 20:08 | 50.04163 | 8.56284 | 361 ft | 6 kts | 156° |
| 2026-05-04 20:08 | 50.04143 | 8.56332 | 355 ft | 5 kts | 92° |
| 2026-05-04 20:08 | 50.04147 | 8.56358 | 356 ft | 0 kts | 75° |
| 2026-05-04 20:09 | 50.04151 | 8.56376 | 357 ft | 5 kts | 71° |
| 2026-05-04 20:09 | 50.04163 | 8.56430 | 356 ft | 3 kts | 70° |
| 2026-05-04 20:09 | 50.04171 | 8.56466 | 357 ft | 8 kts | 70° |
| 2026-05-04 20:09 | 50.04193 | 8.56558 | 356 ft | 10 kts | 70° |
| 2026-05-04 20:10 | 50.04228 | 8.56706 | 361 ft | 15 kts | 70° |
| 2026-05-04 20:10 | 50.04262 | 8.56846 | 363 ft | 12 kts | 69° |
| 2026-05-04 20:10 | 50.04301 | 8.57009 | 363 ft | 20 kts | 69° |
| 2026-05-04 20:10 | 50.04351 | 8.57217 | 364 ft | 21 kts | 69° |
| 2026-05-04 20:11 | 50.04405 | 8.57439 | 363 ft | 22 kts | 70° |
| 2026-05-04 20:11 | 50.04455 | 8.57652 | 365 ft | 20 kts | 70° |
| 2026-05-04 20:11 | 50.04488 | 8.57791 | 367 ft | 9 kts | 70° |
| 2026-05-04 20:11 | 50.04494 | 8.57818 | 365 ft | 0 kts | 69° |
| 2026-05-04 20:13 | 50.04495 | 8.57819 | 365 ft | 2 kts | 69° |
| 2026-05-04 20:13 | 50.04507 | 8.57872 | 367 ft | 9 kts | 69° |
| 2026-05-04 20:13 | 50.04529 | 8.57961 | 368 ft | 8 kts | 69° |
| 2026-05-04 20:14 | 50.04552 | 8.58057 | 364 ft | 12 kts | 69° |
| 2026-05-04 20:14 | 50.04579 | 8.58171 | 365 ft | 9 kts | 70° |
| 2026-05-04 20:14 | 50.04597 | 8.58244 | 367 ft | 7 kts | 69° |
| 2026-05-04 20:14 | 50.04615 | 8.58320 | 372 ft | 10 kts | 69° |
| 2026-05-04 20:15 | 50.04642 | 8.58432 | 369 ft | 11 kts | 70° |
| 2026-05-04 20:15 | 50.04658 | 8.58534 | 374 ft | 9 kts | 94° |
| 2026-05-04 20:15 | 50.04621 | 8.58581 | 369 ft | 7 kts | 161° |
| 2026-05-04 20:15 | 50.04570 | 8.58606 | 373 ft | 11 kts | 162° |
| 2026-05-04 20:16 | 50.04504 | 8.58622 | 371 ft | 8 kts | 200° |
| 2026-05-04 20:16 | 50.04480 | 8.58562 | 370 ft | 1 kts | 251° |
| 2026-05-04 20:19 | 50.04471 | 8.58520 | 370 ft | 22 kts | 251° |
| 2026-05-04 20:19 | 50.04322 | 8.57898 | 368 ft | 96 kts | 249° |
| 2026-05-04 20:19 | 50.04017 | 8.56626 | 359 ft | 152 kts | 249° |
| 2026-05-04 20:20 | 50.03617 | 8.54978 | 704 ft | 166 kts | 249° |
| 2026-05-04 20:20 | 50.03207 | 8.53377 | 1634 ft | 151 kts | 249° |
| 2026-05-04 20:20 | 50.02804 | 8.51874 | 2202 ft | 155 kts | 250° |
| 2026-05-04 20:20 | 50.02333 | 8.50250 | 2449 ft | 177 kts | 238° |
| 2026-05-04 20:21 | 50.01398 | 8.48770 | 2649 ft | 205 kts | 212° |
| 2026-05-04 20:21 | 50.00045 | 8.47986 | 3228 ft | 213 kts | 189° |
| 2026-05-04 20:21 | 49.97131 | 8.47328 | 4881 ft | 211 kts | 188° |
| 2026-05-04 20:22 | 49.95686 | 8.46901 | 5627 ft | 215 kts | 196° |
| 2026-05-04 20:22 | 49.94174 | 8.46207 | 6047 ft | 236 kts | 197° |
| 2026-05-04 20:22 | 49.92590 | 8.45393 | 6790 ft | 242 kts | 206° |
| 2026-05-04 20:22 | 49.91301 | 8.43733 | 7578 ft | 246 kts | 233° |
| 2026-05-04 20:23 | 49.90660 | 8.41255 | 8429 ft | 253 kts | 261° |
| 2026-05-04 20:23 | 49.90872 | 8.38527 | 9274 ft | 262 kts | 289° |
| 2026-05-04 20:23 | 49.91971 | 8.36238 | 10075 ft | 274 kts | 320° |
| 2026-05-04 20:23 | 49.93688 | 8.34850 | 10711 ft | 287 kts | 333° |
| 2026-05-04 20:24 | 49.95600 | 8.33586 | 10997 ft | 310 kts | 334° |
| 2026-05-04 20:24 | 49.97665 | 8.32259 | 11229 ft | 334 kts | 335° |
| 2026-05-04 20:24 | 49.99899 | 8.30832 | 11435 ft | 357 kts | 335° |
| 2026-05-04 20:24 | 50.02264 | 8.29412 | 11904 ft | 370 kts | 341° |
| 2026-05-04 20:25 | 50.04825 | 8.28780 | 12566 ft | 379 kts | 357° |
| 2026-05-04 20:25 | 50.07464 | 8.29211 | 13269 ft | 385 kts | 13° |
| 2026-05-04 20:25 | 50.10034 | 8.30489 | 13946 ft | 390 kts | 18° |
| 2026-05-04 20:25 | 50.12612 | 8.31845 | 14564 ft | 393 kts | 18° |
| 2026-05-04 20:26 | 50.15221 | 8.33213 | 15172 ft | 397 kts | 17° |
| 2026-05-04 20:26 | 50.17854 | 8.34592 | 15776 ft | 401 kts | 17° |
| 2026-05-04 20:26 | 50.20510 | 8.35985 | 16383 ft | 405 kts | 17° |
| 2026-05-04 20:26 | 50.23189 | 8.37393 | 16990 ft | 409 kts | 18° |
| 2026-05-04 20:27 | 50.25895 | 8.38820 | 17594 ft | 413 kts | 18° |
| 2026-05-04 20:27 | 50.28626 | 8.40263 | 18202 ft | 417 kts | 18° |
| 2026-05-04 20:27 | 50.31389 | 8.41732 | 18722 ft | 421 kts | 18° |
| 2026-05-04 20:27 | 50.34167 | 8.43231 | 19247 ft | 424 kts | 18° |
| 2026-05-04 20:28 | 50.36967 | 8.44759 | 19794 ft | 428 kts | 18° |
| 2026-05-04 20:28 | 50.39784 | 8.46308 | 20315 ft | 431 kts | 18° |
| 2026-05-04 20:28 | 50.42622 | 8.47873 | 20826 ft | 434 kts | 18° |
| 2026-05-04 20:28 | 50.45485 | 8.49449 | 21314 ft | 438 kts | 18° |
| 2026-05-04 20:29 | 50.48337 | 8.51002 | 21779 ft | 441 kts | 17° |
| 2026-05-04 20:29 | 50.51261 | 8.52492 | 21956 ft | 442 kts | 16° |
| 2026-05-04 20:29 | 50.54247 | 8.53922 | 21999 ft | 456 kts | 15° |
| 2026-05-04 20:29 | 50.57318 | 8.55341 | 22004 ft | 463 kts | 15° |
| 2026-05-04 20:30 | 50.60413 | 8.56764 | 21995 ft | 464 kts | 15° |
| 2026-05-04 20:30 | 50.63508 | 8.58203 | 21997 ft | 464 kts | 15° |
| 2026-05-04 20:30 | 50.66602 | 8.59664 | 21996 ft | 464 kts | 15° |
| 2026-05-04 20:30 | 50.69690 | 8.61145 | 21997 ft | 464 kts | 16° |
| 2026-05-04 20:31 | 50.72784 | 8.62644 | 22000 ft | 464 kts | 16° |
| 2026-05-04 20:31 | 50.75873 | 8.64148 | 21996 ft | 464 kts | 16° |
| 2026-05-04 20:31 | 50.78960 | 8.65655 | 21997 ft | 464 kts | 16° |
| 2026-05-04 20:31 | 50.82042 | 8.67166 | 21996 ft | 464 kts | 17° |
| 2026-05-04 20:32 | 50.85100 | 8.68826 | 21996 ft | 464 kts | 19° |
| 2026-05-04 20:32 | 50.88115 | 8.70661 | 21987 ft | 465 kts | 21° |
| 2026-05-04 20:32 | 50.91102 | 8.72612 | 21988 ft | 464 kts | 22° |
| 2026-05-04 20:32 | 50.94085 | 8.74614 | 21977 ft | 464 kts | 22° |
| 2026-05-04 20:33 | 50.97054 | 8.76603 | 21985 ft | 464 kts | 22° |
| 2026-05-04 20:33 | 51.00042 | 8.78571 | 21979 ft | 464 kts | 21° |
| 2026-05-04 20:33 | 51.03033 | 8.80504 | 21985 ft | 464 kts | 21° |
| 2026-05-04 20:33 | 51.06016 | 8.82403 | 21981 ft | 464 kts | 21° |
| 2026-05-04 20:34 | 51.09031 | 8.84309 | 21985 ft | 464 kts | 20° |
| 2026-05-04 20:34 | 51.12033 | 8.86206 | 21981 ft | 464 kts | 21° |
| 2026-05-04 20:34 | 51.15029 | 8.88107 | 21992 ft | 464 kts | 21° |
| 2026-05-04 20:34 | 51.18028 | 8.90020 | 21982 ft | 464 kts | 21° |
| 2026-05-04 20:35 | 51.21017 | 8.91935 | 21982 ft | 464 kts | 21° |
| 2026-05-04 20:35 | 51.24010 | 8.93862 | 21996 ft | 464 kts | 21° |
| 2026-05-04 20:35 | 51.26998 | 8.95795 | 21997 ft | 463 kts | 21° |
| 2026-05-04 20:35 | 51.29986 | 8.97725 | 21998 ft | 463 kts | 21° |
| 2026-05-04 20:36 | 51.32972 | 8.99655 | 21988 ft | 463 kts | 21° |
| 2026-05-04 20:36 | 51.35955 | 9.01585 | 21988 ft | 463 kts | 21° |
| 2026-05-04 20:36 | 51.38934 | 9.03518 | 21992 ft | 462 kts | 21° |
| 2026-05-04 20:36 | 51.41915 | 9.05459 | 21987 ft | 462 kts | 21° |
| 2026-05-04 20:37 | 51.44894 | 9.07402 | 21986 ft | 462 kts | 21° |
| 2026-05-04 20:37 | 51.47876 | 9.09344 | 21998 ft | 462 kts | 20° |
| 2026-05-04 20:37 | 51.50920 | 9.10961 | 21994 ft | 460 kts | 12° |
| 2026-05-04 20:37 | 51.54063 | 9.11847 | 21997 ft | 458 kts | 5° |
| 2026-05-04 20:38 | 51.57224 | 9.12506 | 21992 ft | 458 kts | 5° |
| 2026-05-04 20:38 | 51.60377 | 9.13175 | 21991 ft | 458 kts | 6° |
| 2026-05-04 20:38 | 51.63538 | 9.13856 | 21988 ft | 458 kts | 6° |
| 2026-05-04 20:38 | 51.66696 | 9.14541 | 21985 ft | 458 kts | 6° |
| 2026-05-04 20:39 | 51.69850 | 9.15229 | 21994 ft | 458 kts | 6° |
| 2026-05-04 20:39 | 51.73004 | 9.15918 | 21997 ft | 457 kts | 6° |
| 2026-05-04 20:39 | 51.76157 | 9.16605 | 21993 ft | 457 kts | 6° |
| 2026-05-04 20:39 | 51.79303 | 9.17288 | 21995 ft | 456 kts | 6° |
| 2026-05-04 20:40 | 51.82450 | 9.17971 | 21994 ft | 456 kts | 6° |
| 2026-05-04 20:40 | 51.85598 | 9.18657 | 21984 ft | 456 kts | 6° |
| 2026-05-04 20:40 | 51.88742 | 9.19344 | 21981 ft | 456 kts | 6° |
| 2026-05-04 20:40 | 51.91882 | 9.20074 | 21979 ft | 456 kts | 7° |
| 2026-05-04 20:41 | 51.95016 | 9.20872 | 21981 ft | 456 kts | 7° |
| 2026-05-04 20:41 | 51.98163 | 9.21191 | 21971 ft | 453 kts | 354° |
| 2026-05-04 20:41 | 52.01230 | 9.20204 | 21969 ft | 448 kts | 338° |
| 2026-05-04 20:41 | 52.04014 | 9.18020 | 21966 ft | 443 kts | 327° |
| 2026-05-04 20:42 | 52.06689 | 9.15512 | 21963 ft | 444 kts | 327° |
| 2026-05-04 20:42 | 52.09358 | 9.13001 | 21962 ft | 444 kts | 327° |
| 2026-05-04 20:42 | 52.12033 | 9.10487 | 21960 ft | 444 kts | 327° |
| 2026-05-04 20:42 | 52.14707 | 9.07968 | 21896 ft | 442 kts | 327° |
| 2026-05-04 20:43 | 52.17346 | 9.05478 | 21548 ft | 436 kts | 327° |
| 2026-05-04 20:43 | 52.19967 | 9.03005 | 21197 ft | 434 kts | 327° |
| 2026-05-04 20:43 | 52.22574 | 9.00542 | 20848 ft | 432 kts | 327° |
| 2026-05-04 20:43 | 52.25170 | 8.98084 | 20488 ft | 430 kts | 327° |
| 2026-05-04 20:44 | 52.27756 | 8.95634 | 20137 ft | 428 kts | 327° |
| 2026-05-04 20:44 | 52.30307 | 8.93215 | 19805 ft | 426 kts | 327° |
| 2026-05-04 20:44 | 52.32861 | 8.90784 | 19464 ft | 424 kts | 327° |
| 2026-05-04 20:44 | 52.35405 | 8.88358 | 19124 ft | 422 kts | 327° |
| 2026-05-04 20:45 | 52.37937 | 8.85940 | 18793 ft | 420 kts | 327° |
| 2026-05-04 20:45 | 52.40454 | 8.83537 | 18460 ft | 418 kts | 327° |
| 2026-05-04 20:45 | 52.42966 | 8.81142 | 18110 ft | 416 kts | 327° |
| 2026-05-04 20:45 | 52.45403 | 8.78814 | 17760 ft | 414 kts | 328° |
| 2026-05-04 20:46 | 52.47920 | 8.76404 | 17373 ft | 412 kts | 328° |
| 2026-05-04 20:46 | 52.50380 | 8.74044 | 17014 ft | 409 kts | 328° |
| 2026-05-04 20:46 | 52.52828 | 8.71692 | 16650 ft | 406 kts | 328° |
| 2026-05-04 20:46 | 52.55262 | 8.69352 | 16283 ft | 404 kts | 328° |
| 2026-05-04 20:47 | 52.57672 | 8.67030 | 15934 ft | 401 kts | 328° |
| 2026-05-04 20:47 | 52.60004 | 8.64778 | 15595 ft | 398 kts | 328° |
| 2026-05-04 20:47 | 52.62385 | 8.62477 | 15246 ft | 396 kts | 328° |
| 2026-05-04 20:47 | 52.64749 | 8.60191 | 14915 ft | 393 kts | 328° |
| 2026-05-04 20:48 | 52.67102 | 8.57913 | 14575 ft | 391 kts | 328° |
| 2026-05-04 20:48 | 52.69416 | 8.55671 | 14230 ft | 382 kts | 328° |
| 2026-05-04 20:48 | 52.71638 | 8.53520 | 13910 ft | 360 kts | 328° |
| 2026-05-04 20:48 | 52.73730 | 8.51496 | 13560 ft | 339 kts | 328° |
| 2026-05-04 20:49 | 52.75679 | 8.49609 | 13191 ft | 322 kts | 328° |
| 2026-05-04 20:49 | 52.77567 | 8.47773 | 12827 ft | 308 kts | 327° |
| 2026-05-04 20:49 | 52.79411 | 8.45975 | 12475 ft | 307 kts | 327° |
| 2026-05-04 20:49 | 52.81242 | 8.44184 | 12053 ft | 307 kts | 327° |
| 2026-05-04 20:50 | 52.83087 | 8.42376 | 11567 ft | 309 kts | 327° |
| 2026-05-04 20:50 | 52.84942 | 8.40560 | 11090 ft | 310 kts | 327° |
| 2026-05-04 20:50 | 52.86792 | 8.38750 | 10622 ft | 306 kts | 327° |
| 2026-05-04 20:50 | 52.88528 | 8.37050 | 10177 ft | 296 kts | 327° |
| 2026-05-04 20:51 | 52.90272 | 8.35342 | 9705 ft | 287 kts | 327° |
| 2026-05-04 20:51 | 52.91963 | 8.33686 | 9201 ft | 279 kts | 327° |
| 2026-05-04 20:51 | 52.93608 | 8.32070 | 8713 ft | 271 kts | 327° |
| 2026-05-04 20:51 | 52.95282 | 8.30767 | 8227 ft | 266 kts | 343° |
| 2026-05-04 20:52 | 52.97109 | 8.30377 | 7754 ft | 264 kts | 356° |
| 2026-05-04 20:52 | 52.98937 | 8.30253 | 7359 ft | 262 kts | 356° |
| 2026-05-04 20:52 | 53.00755 | 8.30186 | 6981 ft | 261 kts | 4° |
| 2026-05-04 20:52 | 53.02471 | 8.31140 | 6622 ft | 262 kts | 36° |
| 2026-05-04 20:53 | 53.03529 | 8.33475 | 6424 ft | 251 kts | 75° |
| 2026-05-04 20:53 | 53.03741 | 8.36371 | 5798 ft | 257 kts | 91° |
| 2026-05-04 20:53 | 53.03738 | 8.39361 | 5082 ft | 260 kts | 91° |
| 2026-05-04 20:53 | 53.03791 | 8.42374 | 4372 ft | 261 kts | 89° |
| 2026-05-04 20:54 | 53.03872 | 8.45355 | 3859 ft | 254 kts | 89° |
| 2026-05-04 20:54 | 53.03948 | 8.48231 | 3503 ft | 243 kts | 89° |
| 2026-05-04 20:54 | 53.04018 | 8.50952 | 3174 ft | 227 kts | 89° |
| 2026-05-04 20:54 | 53.04081 | 8.53451 | 2885 ft | 207 kts | 89° |
| 2026-05-04 20:55 | 53.04138 | 8.55759 | 2639 ft | 193 kts | 88° |
| 2026-05-04 20:55 | 53.04191 | 8.57913 | 2352 ft | 180 kts | 88° |
| 2026-05-04 20:55 | 53.04240 | 8.59909 | 2124 ft | 165 kts | 87° |
| 2026-05-04 20:55 | 53.04284 | 8.61726 | 1916 ft | 150 kts | 85° |
| 2026-05-04 20:56 | 53.04325 | 8.63408 | 1721 ft | 143 kts | 85° |
| 2026-05-04 20:56 | 53.04364 | 8.65032 | 1531 ft | 140 kts | 84° |
| 2026-05-04 20:56 | 53.04403 | 8.66655 | 1340 ft | 140 kts | 85° |
| 2026-05-04 20:56 | 53.04442 | 8.68266 | 1137 ft | 140 kts | 84° |
| 2026-05-04 20:57 | 53.04480 | 8.69884 | 959 ft | 141 kts | 84° |
| 2026-05-04 20:57 | 53.04519 | 8.71504 | 759 ft | 139 kts | 84° |
| 2026-05-04 20:57 | 53.04554 | 8.73103 | 599 ft | 138 kts | 85° |
| 2026-05-04 20:57 | 53.04592 | 8.74687 | 381 ft | 136 kts | 84° |
| 2026-05-04 20:58 | 53.04627 | 8.76257 | 210 ft | 135 kts | 85° |
| 2026-05-04 20:58 | 53.04663 | 8.77812 | 23 ft | 133 kts | 84° |
| 2026-05-04 20:58 | 53.04698 | 8.79152 | 20 ft | 92 kts | 89° |
| 2026-05-04 20:58 | 53.04714 | 8.79931 | 20 ft | 44 kts | 89° |
| 2026-05-04 20:59 | 53.04722 | 8.80322 | 20 ft | 19 kts | 86° |
| 2026-05-04 20:59 | 53.04750 | 8.80457 | 20 ft | 12 kts | 26° |
| 2026-05-04 20:59 | 53.04841 | 8.80455 | 19 ft | 14 kts | 347° |
| 2026-05-04 20:59 | 53.04888 | 8.80335 | 19 ft | 13 kts | 269° |
| 2026-05-04 21:00 | 53.04886 | 8.80193 | 19 ft | 11 kts | 268° |
| 2026-05-04 21:00 | 53.04883 | 8.80071 | 19 ft | 10 kts | 266° |
| 2026-05-04 21:00 | 53.04880 | 8.79958 | 19 ft | 10 kts | 268° |
| 2026-05-04 21:00 | 53.04877 | 8.79840 | 19 ft | 10 kts | 268° |
| 2026-05-04 21:01 | 53.04874 | 8.79716 | 19 ft | 11 kts | 268° |
| 2026-05-04 21:01 | 53.04871 | 8.79579 | 19 ft | 16 kts | 268° |
| 2026-05-04 21:01 | 53.04866 | 8.79387 | 19 ft | 15 kts | 268° |
| 2026-05-04 21:01 | 53.04863 | 8.79218 | 19 ft | 14 kts | 268° |
| 2026-05-04 21:02 | 53.04860 | 8.79066 | 19 ft | 13 kts | 268° |
| 2026-05-04 21:02 | 53.04858 | 8.78971 | 19 ft | 12 kts | 268° |
| 2026-05-04 21:02 | 53.04899 | 8.78855 | 19 ft | 9 kts | 320° |
| 2026-05-04 21:02 | 53.04946 | 8.78788 | 19 ft | 9 kts | 320° |
| 2026-05-04 21:03 | 53.04979 | 8.78741 | 19 ft | 9 kts | 315° |
| 2026-05-04 21:03 | 53.05004 | 8.78648 | 21 ft | 8 kts | 283° |
| 2026-05-04 21:03 | 53.05033 | 8.78573 | 19 ft | 8 kts | 320° |
| 2026-05-04 21:03 | 53.05079 | 8.78510 | 19 ft | 9 kts | 320° |
| 2026-05-04 21:04 | 53.05128 | 8.78434 | 19 ft | 11 kts | 311° |
| 2026-05-04 21:04 | 53.05167 | 8.78329 | 19 ft | 10 kts | 292° |
| 2026-05-04 21:04 | 53.05190 | 8.78265 | 19 ft | 5 kts | 347° |
| 2026-05-04 21:04 | 53.05222 | 8.78281 | 19 ft | 5 kts | 17° |
| 2026-05-04 21:05 | 53.05243 | 8.78292 | 19 ft | 1 kts | 18° |
| 2026-05-04 21:05 | 53.05244 | 8.78293 | 19 ft | 0 kts | 18° |